createdAt,value
2024-03-07T00:00:00.722Z,81
2024-03-07T00:01:00.867Z,81
2024-03-07T00:02:00.695Z,81
2024-03-07T00:03:00.819Z,81
2024-03-07T00:04:00.720Z,81
2024-03-07T00:05:00.775Z,81
2024-03-07T00:06:01.019Z,81
2024-03-07T00:07:00.719Z,81
2024-03-07T00:08:00.877Z,81
2024-03-07T00:10:00.860Z,81
2024-03-07T00:11:00.849Z,81
2024-03-07T00:12:00.997Z,81
2024-03-07T00:14:00.738Z,81
2024-03-07T00:15:00.777Z,81
2024-03-07T00:17:00.706Z,81
2024-03-07T00:18:01.118Z,81
2024-03-07T00:19:00.747Z,81
2024-03-07T00:20:00.746Z,81
2024-03-07T00:21:00.841Z,81
2024-03-07T00:23:00.706Z,81
2024-03-07T00:24:00.687Z,81
2024-03-07T00:25:00.728Z,81
2024-03-07T00:26:00.697Z,81
2024-03-07T00:27:00.749Z,81
2024-03-07T00:28:00.661Z,81
2024-03-07T00:29:00.826Z,81
2024-03-07T00:30:01.066Z,81
2024-03-07T00:31:00.824Z,81
2024-03-07T00:32:00.724Z,81
2024-03-07T00:33:01.055Z,81
2024-03-07T00:34:20.049Z,81
2024-03-07T00:36:00.863Z,81
2024-03-07T00:37:00.754Z,81
2024-03-07T00:38:00.713Z,81
2024-03-07T00:39:00.675Z,81
2024-03-07T00:40:00.787Z,81
2024-03-07T00:41:00.682Z,81
2024-03-07T00:42:00.744Z,81
2024-03-07T00:43:00.675Z,81
2024-03-07T00:44:00.708Z,81
2024-03-07T00:45:00.683Z,81
2024-03-07T00:46:00.696Z,81
2024-03-07T00:47:00.743Z,81
2024-03-07T00:48:01.030Z,81
2024-03-07T00:49:00.703Z,81
2024-03-07T00:50:00.718Z,81
2024-03-07T00:51:00.674Z,81
2024-03-07T00:52:00.726Z,81
2024-03-07T00:53:00.730Z,81
2024-03-07T00:54:00.678Z,81
2024-03-07T00:55:00.807Z,81
2024-03-07T00:56:00.702Z,81
2024-03-07T00:57:00.866Z,81
2024-03-07T00:58:00.694Z,81
2024-03-07T00:59:00.724Z,81
2024-03-07T01:00:01.056Z,81
2024-03-07T01:02:00.748Z,81
2024-03-07T01:03:01.253Z,81
2024-03-07T01:04:00.695Z,81
2024-03-07T01:05:00.768Z,81
2024-03-07T01:06:00.970Z,81
2024-03-07T01:07:00.710Z,81
2024-03-07T01:08:00.700Z,81
2024-03-07T01:09:00.765Z,81
2024-03-07T01:10:00.706Z,81
2024-03-07T01:11:00.810Z,81
2024-03-07T01:12:01.090Z,81
2024-03-07T01:13:00.688Z,81
2024-03-07T01:14:00.775Z,81
2024-03-07T01:15:00.873Z,81
2024-03-07T01:17:00.727Z,81
2024-03-07T01:18:00.967Z,81
2024-03-07T01:19:00.764Z,81
2024-03-07T01:20:00.778Z,81
2024-03-07T01:21:00.679Z,81
2024-03-07T01:22:00.741Z,81
2024-03-07T01:23:00.712Z,81
2024-03-07T01:24:00.863Z,81
2024-03-07T01:25:00.791Z,81
2024-03-07T01:26:00.756Z,81
2024-03-07T01:27:01.036Z,81
2024-03-07T01:29:00.725Z,81
2024-03-07T01:30:00.921Z,81
2024-03-07T01:31:00.731Z,81
2024-03-07T01:32:00.768Z,82
2024-03-07T01:33:01.129Z,82
2024-03-07T01:35:00.874Z,82
2024-03-07T01:36:00.770Z,82
2024-03-07T01:37:00.724Z,82
2024-03-07T01:38:00.761Z,82
2024-03-07T01:39:00.853Z,82
2024-03-07T01:40:00.821Z,82
2024-03-07T01:41:00.735Z,82
2024-03-07T01:42:00.883Z,82
2024-03-07T01:43:00.701Z,82
2024-03-07T01:44:00.758Z,82
2024-03-07T01:45:01.004Z,82
2024-03-07T01:46:00.732Z,82
2024-03-07T01:47:00.718Z,82
2024-03-07T01:48:01.386Z,82
2024-03-07T01:50:00.754Z,82
2024-03-07T01:51:00.932Z,82
2024-03-07T01:52:00.663Z,82
2024-03-07T01:53:00.735Z,82
2024-03-07T01:54:01.013Z,82
2024-03-07T01:56:00.775Z,82
2024-03-07T01:57:00.910Z,82
2024-03-07T01:58:00.684Z,82
2024-03-07T01:59:00.750Z,82
2024-03-07T02:01:00.919Z,82
2024-03-07T02:03:00.980Z,82
2024-03-07T02:04:00.808Z,82
2024-03-07T02:05:00.754Z,82
2024-03-07T02:06:00.895Z,82
2024-03-07T02:07:00.700Z,82
2024-03-07T02:08:00.850Z,82
2024-03-07T02:09:00.738Z,82
2024-03-07T02:10:00.757Z,82
2024-03-07T02:11:00.861Z,82
2024-03-07T02:12:00.763Z,82
2024-03-07T02:14:00.721Z,82
2024-03-07T02:15:01.188Z,82
2024-03-07T02:16:00.770Z,82
2024-03-07T02:17:00.778Z,82
2024-03-07T02:18:00.897Z,82
2024-03-07T02:20:00.722Z,82
2024-03-07T02:21:00.829Z,82
2024-03-07T02:22:00.728Z,82
2024-03-07T02:23:00.710Z,82
2024-03-07T02:24:00.750Z,85
2024-03-07T02:26:00.799Z,85
2024-03-07T02:27:00.968Z,85
2024-03-07T02:28:00.957Z,85
2024-03-07T02:29:00.804Z,85
2024-03-07T02:30:00.815Z,85
2024-03-07T02:31:00.682Z,85
2024-03-07T02:32:00.726Z,85
2024-03-07T02:33:01.123Z,85
2024-03-07T02:35:00.801Z,85
2024-03-07T02:36:01.154Z,85
2024-03-07T02:37:00.691Z,85
2024-03-07T02:38:00.696Z,85
2024-03-07T02:39:00.994Z,85
2024-03-07T02:40:00.685Z,85
2024-03-07T02:41:00.710Z,85
2024-03-07T02:42:00.899Z,85
2024-03-07T02:43:00.732Z,85
2024-03-07T02:44:00.728Z,85
2024-03-07T02:45:00.749Z,85
2024-03-07T02:46:00.701Z,85
2024-03-07T02:47:00.743Z,85
2024-03-07T02:48:01.380Z,85
2024-03-07T02:49:00.719Z,85
2024-03-07T02:50:00.766Z,85
2024-03-07T02:51:00.875Z,85
2024-03-07T02:53:00.734Z,85
2024-03-07T02:54:00.973Z,85
2024-03-07T02:55:00.702Z,85
2024-03-07T02:56:00.698Z,85
2024-03-07T02:57:00.860Z,85
2024-03-07T02:58:00.711Z,85
2024-03-07T02:59:05.508Z,85
2024-03-07T03:01:00.713Z,85
2024-03-07T03:02:00.775Z,85
2024-03-07T03:03:00.772Z,85
2024-03-07T03:04:00.787Z,85
2024-03-07T03:05:00.926Z,85
2024-03-07T03:07:00.710Z,85
2024-03-07T03:08:00.796Z,85
2024-03-07T03:09:00.710Z,85
2024-03-07T03:10:00.720Z,85
2024-03-07T03:11:00.814Z,85
2024-03-07T03:12:00.939Z,85
2024-03-07T03:13:01.787Z,85
2024-03-07T03:15:00.914Z,85
2024-03-07T03:16:00.694Z,85
2024-03-07T03:17:00.852Z,85
2024-03-07T03:18:02.651Z,85
2024-03-07T03:20:00.707Z,85
2024-03-07T03:21:00.793Z,85
2024-03-07T03:22:00.688Z,87
2024-03-07T03:23:21.445Z,87
2024-03-07T03:25:00.730Z,87
2024-03-07T03:26:00.774Z,87
2024-03-07T03:27:00.908Z,87
2024-03-07T03:28:00.681Z,87
2024-03-07T03:29:00.713Z,87
2024-03-07T03:30:00.866Z,87
2024-03-07T03:31:00.698Z,87
2024-03-07T03:32:00.735Z,87
2024-03-07T03:33:00.988Z,87
2024-03-07T03:34:00.689Z,87
2024-03-07T03:35:00.693Z,87
2024-03-07T03:36:01.062Z,87
2024-03-07T03:37:00.708Z,87
2024-03-07T03:38:00.761Z,87
2024-03-07T03:39:00.953Z,87
2024-03-07T03:40:00.708Z,87
2024-03-07T03:41:00.705Z,87
2024-03-07T03:42:00.797Z,87
2024-03-07T03:43:00.705Z,87
2024-03-07T03:44:00.710Z,87
2024-03-07T03:45:00.746Z,87
2024-03-07T03:46:00.699Z,87
2024-03-07T03:47:00.722Z,87
2024-03-07T03:48:01.427Z,87
2024-03-07T03:50:00.953Z,87
2024-03-07T03:51:00.783Z,87
2024-03-07T03:52:00.734Z,87
2024-03-07T03:53:00.718Z,87
2024-03-07T03:54:00.829Z,87
2024-03-07T03:55:00.715Z,87
2024-03-07T03:56:00.773Z,87
2024-03-07T03:57:00.827Z,87
2024-03-07T03:58:00.691Z,87
2024-03-07T03:59:00.721Z,87
2024-03-07T04:00:00.761Z,87
2024-03-07T04:01:00.675Z,87
2024-03-07T04:02:00.697Z,87
2024-03-07T04:03:00.884Z,87
2024-03-07T04:05:00.743Z,87
2024-03-07T04:06:00.811Z,87
2024-03-07T04:07:00.728Z,87
2024-03-07T04:08:00.797Z,87
2024-03-07T04:09:00.760Z,87
2024-03-07T04:10:00.740Z,87
2024-03-07T04:11:00.978Z,87
2024-03-07T04:12:01.296Z,87
2024-03-07T04:13:00.781Z,88
2024-03-07T04:14:00.735Z,88
2024-03-07T04:15:00.846Z,88
2024-03-07T04:17:00.819Z,88
2024-03-07T04:18:00.775Z,88
2024-03-07T04:19:00.829Z,88
2024-03-07T04:20:00.704Z,88
2024-03-07T04:21:01.509Z,88
2024-03-07T04:23:00.766Z,88
2024-03-07T04:24:00.994Z,88
2024-03-07T04:25:00.697Z,88
2024-03-07T04:26:00.722Z,88
2024-03-07T04:27:00.872Z,88
2024-03-07T04:28:00.679Z,88
2024-03-07T04:29:00.778Z,88
2024-03-07T04:30:00.730Z,88
2024-03-07T04:32:00.705Z,88
2024-03-07T04:33:01.058Z,88
2024-03-07T04:34:00.743Z,88
2024-03-07T04:35:00.748Z,88
2024-03-07T04:36:00.857Z,88
2024-03-07T04:37:00.689Z,88
2024-03-07T04:38:00.704Z,88
2024-03-07T04:39:00.909Z,88
2024-03-07T04:40:00.749Z,88
2024-03-07T04:41:00.777Z,88
2024-03-07T04:42:00.903Z,88
2024-03-07T04:43:00.690Z,88
2024-03-07T04:44:00.808Z,88
2024-03-07T04:45:00.730Z,88
2024-03-07T04:47:00.769Z,88
2024-03-07T04:48:01.119Z,88
2024-03-07T04:50:00.845Z,88
2024-03-07T04:51:01.123Z,88
2024-03-07T04:53:00.762Z,88
2024-03-07T04:54:00.741Z,88
2024-03-07T04:55:00.749Z,88
2024-03-07T04:56:00.791Z,88
2024-03-07T04:57:00.983Z,88
2024-03-07T04:58:00.753Z,88
2024-03-07T04:59:00.725Z,88
2024-03-07T05:00:00.968Z,88
2024-03-07T05:02:00.725Z,88
2024-03-07T05:03:00.891Z,88
2024-03-07T05:04:00.679Z,88
2024-03-07T05:05:00.730Z,88
2024-03-07T05:06:00.961Z,88
2024-03-07T05:07:00.681Z,88
2024-03-07T05:08:00.724Z,88
2024-03-07T05:09:00.810Z,89
2024-03-07T05:10:00.821Z,89
2024-03-07T05:11:00.839Z,89
2024-03-07T05:12:00.768Z,89
2024-03-07T05:14:00.732Z,89
2024-03-07T05:15:01.082Z,89
2024-03-07T05:16:00.761Z,89
2024-03-07T05:17:00.703Z,89
2024-03-07T05:18:01.082Z,89
2024-03-07T05:19:00.723Z,89
2024-03-07T05:20:00.734Z,89
2024-03-07T05:21:00.919Z,89
2024-03-07T05:22:00.712Z,89
2024-03-07T05:23:00.749Z,89
2024-03-07T05:24:00.936Z,89
2024-03-07T05:25:01.026Z,89
2024-03-07T05:27:00.909Z,89
2024-03-07T05:28:00.743Z,89
2024-03-07T05:29:00.729Z,89
2024-03-07T05:30:01.094Z,89
2024-03-07T05:32:00.760Z,89
2024-03-07T05:33:00.801Z,89
2024-03-07T05:34:00.766Z,89
2024-03-07T05:35:00.736Z,89
2024-03-07T05:36:00.899Z,89
2024-03-07T05:37:00.678Z,89
2024-03-07T05:38:00.790Z,89
2024-03-07T05:39:00.777Z,89
2024-03-07T05:40:00.895Z,89
2024-03-07T05:42:01.169Z,89
2024-03-07T05:44:00.774Z,89
2024-03-07T05:45:01.467Z,89
2024-03-07T05:47:00.824Z,89
2024-03-07T05:48:00.784Z,89
2024-03-07T05:50:00.781Z,89
2024-03-07T05:51:00.934Z,89
2024-03-07T05:53:00.709Z,89
2024-03-07T05:54:00.752Z,89
2024-03-07T05:55:00.766Z,89
2024-03-07T05:56:00.717Z,89
2024-03-07T05:57:00.813Z,89
2024-03-07T05:58:00.704Z,89
2024-03-07T05:59:00.768Z,89
2024-03-07T06:00:00.935Z,89
2024-03-07T06:01:00.753Z,89
2024-03-07T06:02:00.823Z,89
2024-03-07T06:03:00.883Z,89
2024-03-07T06:04:00.689Z,91
2024-03-07T06:05:00.742Z,91
2024-03-07T06:06:00.846Z,91
2024-03-07T06:08:00.712Z,91
2024-03-07T06:09:00.863Z,91
2024-03-07T06:10:00.690Z,91
2024-03-07T06:11:00.820Z,91
2024-03-07T06:12:16.623Z,91
2024-03-07T06:14:00.730Z,91
2024-03-07T06:15:00.919Z,91
2024-03-07T06:16:00.740Z,91
2024-03-07T06:17:00.749Z,91
2024-03-07T06:18:01.090Z,91
2024-03-07T06:19:00.738Z,91
2024-03-07T06:20:00.743Z,91
2024-03-07T06:21:00.934Z,91
2024-03-07T06:22:00.736Z,91
2024-03-07T06:23:00.754Z,91
2024-03-07T06:24:01.253Z,91
2024-03-07T06:26:00.805Z,91
2024-03-07T06:27:01.741Z,91
2024-03-07T06:29:00.747Z,91
2024-03-07T06:30:01.089Z,91
2024-03-07T06:32:00.771Z,91
2024-03-07T06:33:00.955Z,91
2024-03-07T06:34:00.698Z,91
2024-03-07T06:35:00.788Z,91
2024-03-07T06:36:01.070Z,91
2024-03-07T06:38:00.759Z,91
2024-03-07T06:39:01.160Z,91
2024-03-07T06:41:00.861Z,91
2024-03-07T06:42:01.196Z,91
2024-03-07T06:43:00.872Z,91
2024-03-07T06:44:00.745Z,91
2024-03-07T06:45:00.914Z,91
2024-03-07T06:46:00.704Z,91
2024-03-07T06:47:00.700Z,91
2024-03-07T06:48:01.078Z,91
2024-03-07T06:49:00.821Z,91
2024-03-07T06:50:00.797Z,91
2024-03-07T06:51:00.895Z,91
2024-03-07T06:52:00.839Z,91
2024-03-07T06:53:04.967Z,91
2024-03-07T06:55:00.723Z,91
2024-03-07T06:56:00.793Z,91
2024-03-07T06:57:01.238Z,91
2024-03-07T06:59:00.721Z,91
2024-03-07T07:00:01.024Z,91
2024-03-07T07:01:00.990Z,91
2024-03-07T07:02:00.978Z,91
2024-03-07T07:03:00.718Z,91
2024-03-07T07:04:00.841Z,91
2024-03-07T07:05:00.747Z,91
2024-03-07T07:06:01.138Z,91
2024-03-07T07:08:00.730Z,91
2024-03-07T07:09:01.231Z,91
2024-03-07T07:11:01.020Z,91
2024-03-07T07:12:01.292Z,91
2024-03-07T07:14:00.846Z,91
2024-03-07T07:15:01.103Z,91
2024-03-07T07:17:00.779Z,91
2024-03-07T07:18:01.092Z,91
2024-03-07T07:20:00.754Z,91
2024-03-07T07:21:01.081Z,91
2024-03-07T07:22:00.698Z,91
2024-03-07T07:23:00.739Z,91
2024-03-07T07:24:01.060Z,91
2024-03-07T07:25:00.739Z,91
2024-03-07T07:26:00.728Z,91
2024-03-07T07:27:01.960Z,91
2024-03-07T07:29:00.697Z,91
2024-03-07T07:30:00.961Z,91
2024-03-07T07:31:00.703Z,91
2024-03-07T07:32:00.729Z,91
2024-03-07T07:33:01.332Z,91
2024-03-07T07:34:00.756Z,91
2024-03-07T07:35:00.756Z,91
2024-03-07T07:36:01.121Z,91
2024-03-07T07:37:00.726Z,91
2024-03-07T07:38:00.820Z,91
2024-03-07T07:39:00.785Z,91
2024-03-07T07:40:00.859Z,91
2024-03-07T07:41:00.713Z,91
2024-03-07T07:42:00.846Z,91
2024-03-07T07:43:00.681Z,91
2024-03-07T07:44:00.720Z,91
2024-03-07T07:45:00.895Z,91
2024-03-07T07:46:00.702Z,91
2024-03-07T07:47:00.743Z,91
2024-03-07T07:48:01.581Z,91
2024-03-07T07:50:00.746Z,91
2024-03-07T07:51:00.952Z,91
2024-03-07T07:52:00.685Z,91
2024-03-07T07:53:00.764Z,91
2024-03-07T07:54:00.841Z,91
2024-03-07T07:55:00.677Z,91
2024-03-07T07:56:00.780Z,91
2024-03-07T07:57:01.157Z,91
2024-03-07T07:58:00.810Z,92
2024-03-07T07:59:00.752Z,92
2024-03-07T08:00:01.061Z,92
2024-03-07T08:01:00.746Z,92
2024-03-07T08:02:00.791Z,92
2024-03-07T08:03:00.911Z,92
2024-03-07T08:04:00.698Z,92
2024-03-07T08:05:00.706Z,92
2024-03-07T08:06:01.110Z,92
2024-03-07T08:08:00.806Z,92
2024-03-07T08:09:00.877Z,92
2024-03-07T08:10:00.841Z,92
2024-03-07T08:11:00.829Z,92
2024-03-07T08:12:01.129Z,92
2024-03-07T08:14:00.811Z,92
2024-03-07T08:15:00.982Z,92
2024-03-07T08:16:00.700Z,92
2024-03-07T08:17:00.765Z,92
2024-03-07T08:18:01.827Z,92
2024-03-07T08:20:00.720Z,92
2024-03-07T08:21:00.875Z,92
2024-03-07T08:22:00.695Z,92
2024-03-07T08:23:01.182Z,92
2024-03-07T08:26:00.755Z,92
2024-03-07T08:27:01.005Z,92
2024-03-07T08:28:00.725Z,92
2024-03-07T08:29:00.798Z,92
2024-03-07T08:30:01.018Z,92
2024-03-07T08:31:00.673Z,92
2024-03-07T08:32:00.712Z,92
2024-03-07T08:33:01.329Z,92
2024-03-07T08:35:00.743Z,92
2024-03-07T08:36:00.871Z,92
2024-03-07T08:37:00.734Z,92
2024-03-07T08:38:00.723Z,92
2024-03-07T08:39:00.980Z,92
2024-03-07T08:40:00.708Z,92
2024-03-07T08:41:00.763Z,92
2024-03-07T08:42:01.071Z,92
2024-03-07T08:44:00.827Z,92
2024-03-07T08:45:01.128Z,92
2024-03-07T08:47:00.720Z,92
2024-03-07T08:48:01.185Z,92
2024-03-07T08:50:00.814Z,90
2024-03-07T08:51:00.777Z,90
2024-03-07T08:52:02.838Z,90
2024-03-07T08:54:00.948Z,90
2024-03-07T08:55:00.731Z,90
2024-03-07T08:56:00.747Z,90
2024-03-07T08:57:00.914Z,90
2024-03-07T08:58:00.710Z,90
2024-03-07T08:59:00.740Z,90
2024-03-07T09:00:01.123Z,90
2024-03-07T09:01:01.163Z,90
2024-03-07T09:03:04.059Z,90
2024-03-07T09:05:00.760Z,90
2024-03-07T09:06:00.898Z,90
2024-03-07T09:07:00.722Z,90
2024-03-07T09:08:00.795Z,90
2024-03-07T09:09:00.978Z,90
2024-03-07T09:10:00.736Z,90
2024-03-07T09:11:01.068Z,90
2024-03-07T09:12:01.621Z,90
2024-03-07T09:14:00.757Z,90
2024-03-07T09:15:01.218Z,90
2024-03-07T09:17:00.797Z,90
2024-03-07T09:18:01.158Z,90
2024-03-07T09:19:00.845Z,90
2024-03-07T09:20:00.762Z,90
2024-03-07T09:21:00.820Z,90
2024-03-07T09:22:00.895Z,90
2024-03-07T09:23:00.695Z,90
2024-03-07T09:24:01.079Z,90
2024-03-07T09:25:00.703Z,90
2024-03-07T09:26:00.764Z,90
2024-03-07T09:27:01.038Z,90
2024-03-07T09:29:00.748Z,90
2024-03-07T09:30:01.109Z,90
2024-03-07T09:31:00.741Z,90
2024-03-07T09:32:00.798Z,90
2024-03-07T09:33:01.266Z,90
2024-03-07T09:34:00.804Z,90
2024-03-07T09:35:00.767Z,90
2024-03-07T09:36:01.105Z,90
2024-03-07T09:37:00.755Z,90
2024-03-07T09:38:00.730Z,90
2024-03-07T09:39:01.006Z,90
2024-03-07T09:40:00.734Z,90
2024-03-07T09:41:00.802Z,90
2024-03-07T09:42:00.762Z,90
2024-03-07T09:43:00.802Z,90
2024-03-07T09:44:00.724Z,90
2024-03-07T09:45:01.158Z,90
2024-03-07T09:47:00.774Z,81
2024-03-07T09:48:01.074Z,81
2024-03-07T09:49:00.840Z,81
2024-03-07T09:50:00.741Z,81
2024-03-07T09:51:01.073Z,81
2024-03-07T09:53:00.775Z,81
2024-03-07T09:54:00.976Z,81
2024-03-07T09:56:00.744Z,81
2024-03-07T09:57:01.313Z,81
2024-03-07T09:59:00.788Z,81
2024-03-07T10:00:01.236Z,81
2024-03-07T10:02:00.780Z,81
2024-03-07T10:03:01.424Z,81
2024-03-07T10:05:00.718Z,81
2024-03-07T10:06:00.914Z,81
2024-03-07T10:08:00.807Z,81
2024-03-07T10:09:01.068Z,81
2024-03-07T10:10:00.742Z,81
2024-03-07T10:11:00.887Z,81
2024-03-07T10:12:01.025Z,81
2024-03-07T10:13:02.260Z,81
2024-03-07T10:15:01.108Z,81
2024-03-07T10:16:00.829Z,81
2024-03-07T10:17:00.710Z,81
2024-03-07T10:18:01.636Z,81
2024-03-07T10:20:00.775Z,81
2024-03-07T10:21:02.353Z,81
2024-03-07T10:23:00.761Z,81
2024-03-07T10:24:00.960Z,81
2024-03-07T10:26:00.833Z,81
2024-03-07T10:27:01.061Z,81
2024-03-07T10:29:00.771Z,81
2024-03-07T10:30:01.314Z,81
2024-03-07T10:32:06.382Z,81
2024-03-07T10:34:00.921Z,81
2024-03-07T10:36:00.936Z,81
2024-03-07T10:37:02.199Z,81
2024-03-07T10:39:00.863Z,76
2024-03-07T10:40:00.697Z,76
2024-03-07T10:41:00.764Z,76
2024-03-07T10:42:00.769Z,76
2024-03-07T10:43:01.315Z,76
2024-03-07T10:45:01.300Z,76
2024-03-07T10:47:00.813Z,76
2024-03-07T10:48:00.935Z,76
2024-03-07T10:49:00.740Z,76
2024-03-07T10:50:00.735Z,76
2024-03-07T10:51:00.889Z,76
2024-03-07T10:53:01.910Z,76
2024-03-07T10:55:15.735Z,76
2024-03-07T10:57:01.116Z,76
2024-03-07T10:58:00.733Z,76
2024-03-07T10:59:00.805Z,76
2024-03-07T11:00:01.141Z,76
2024-03-07T11:01:00.806Z,76
2024-03-07T11:02:00.740Z,76
2024-03-07T11:03:01.046Z,76
2024-03-07T11:04:01.037Z,76
2024-03-07T11:06:00.956Z,76
2024-03-07T11:07:00.782Z,76
2024-03-07T11:08:00.787Z,76
2024-03-07T11:09:01.065Z,76
2024-03-07T11:10:00.700Z,76
2024-03-07T11:11:00.841Z,76
2024-03-07T11:13:00.756Z,76
2024-03-07T11:14:00.734Z,76
2024-03-07T11:15:00.940Z,76
2024-03-07T11:16:00.711Z,76
2024-03-07T11:17:00.772Z,76
2024-03-07T11:18:01.091Z,76
2024-03-07T11:20:00.731Z,76
2024-03-07T11:21:01.211Z,76
2024-03-07T11:23:00.735Z,76
2024-03-07T11:24:00.908Z,76
2024-03-07T11:25:00.695Z,76
2024-03-07T11:26:00.720Z,76
2024-03-07T11:27:01.099Z,76
2024-03-07T11:28:00.804Z,76
2024-03-07T11:29:00.746Z,76
2024-03-07T11:30:01.019Z,76
2024-03-07T11:32:00.741Z,74
2024-03-07T11:33:01.043Z,74
2024-03-07T11:34:00.760Z,74
2024-03-07T11:35:00.762Z,74
2024-03-07T11:36:00.796Z,74
2024-03-07T11:37:00.690Z,74
2024-03-07T11:38:00.949Z,74
2024-03-07T11:39:01.014Z,74
2024-03-07T11:41:00.737Z,74
2024-03-07T11:42:00.881Z,74
2024-03-07T11:43:00.712Z,74
2024-03-07T11:44:00.729Z,74
2024-03-07T11:45:01.142Z,74
2024-03-07T11:47:04.383Z,74
2024-03-07T11:49:00.739Z,74
2024-03-07T11:50:00.985Z,74
2024-03-07T11:52:00.713Z,74
2024-03-07T11:53:00.741Z,74
2024-03-07T11:54:00.933Z,74
2024-03-07T11:55:00.722Z,74
2024-03-07T11:56:00.725Z,74
2024-03-07T11:57:01.285Z,74
2024-03-07T11:59:00.749Z,74
2024-03-07T12:00:00.974Z,74
2024-03-07T12:02:00.886Z,74
2024-03-07T12:04:00.777Z,74
2024-03-07T12:05:00.753Z,74
2024-03-07T12:06:00.860Z,74
2024-03-07T12:07:00.718Z,74
2024-03-07T12:08:00.761Z,74
2024-03-07T12:09:00.954Z,74
2024-03-07T12:10:00.706Z,74
2024-03-07T12:11:01.182Z,74
2024-03-07T12:12:01.551Z,74
2024-03-07T12:14:00.781Z,74
2024-03-07T12:15:01.233Z,74
2024-03-07T12:16:00.811Z,74
2024-03-07T12:17:00.712Z,74
2024-03-07T12:18:00.937Z,74
2024-03-07T12:19:00.775Z,74
2024-03-07T12:20:00.785Z,74
2024-03-07T12:21:01.421Z,74
2024-03-07T12:23:00.763Z,74
2024-03-07T12:24:00.934Z,74
2024-03-07T12:25:00.686Z,74
2024-03-07T12:26:00.773Z,74
2024-03-07T12:27:00.798Z,74
2024-03-07T12:29:00.706Z,74
2024-03-07T12:30:01.131Z,74
2024-03-07T12:32:00.733Z,70
2024-03-07T12:33:00.943Z,70
2024-03-07T12:34:00.957Z,70
2024-03-07T12:35:00.827Z,70
2024-03-07T12:36:01.362Z,70
2024-03-07T12:37:00.695Z,70
2024-03-07T12:38:00.760Z,70
2024-03-07T12:39:01.058Z,70
2024-03-07T12:40:00.742Z,70
2024-03-07T12:41:00.778Z,70
2024-03-07T12:42:01.286Z,70
2024-03-07T12:44:00.720Z,70
2024-03-07T12:45:01.645Z,70
2024-03-07T12:47:00.725Z,70
2024-03-07T12:48:01.159Z,70
2024-03-07T12:49:00.894Z,70
2024-03-07T12:50:00.838Z,70
2024-03-07T12:51:02.437Z,70
2024-03-07T12:53:00.736Z,70
2024-03-07T12:54:00.885Z,70
2024-03-07T12:55:00.702Z,70
2024-03-07T12:56:00.727Z,70
2024-03-07T12:57:00.876Z,70
2024-03-07T12:58:00.717Z,70
2024-03-07T12:59:00.694Z,70
2024-03-07T13:00:01.284Z,70
2024-03-07T13:02:00.724Z,70
2024-03-07T13:03:01.214Z,70
2024-03-07T13:05:01.747Z,70
2024-03-07T13:06:00.873Z,70
2024-03-07T13:07:00.829Z,70
2024-03-07T13:08:00.675Z,70
2024-03-07T13:09:01.225Z,70
2024-03-07T13:10:00.682Z,70
2024-03-07T13:11:02.944Z,70
2024-03-07T13:13:00.723Z,70
2024-03-07T13:14:00.695Z,70
2024-03-07T13:15:01.312Z,70
2024-03-07T13:17:00.839Z,70
2024-03-07T13:18:00.988Z,70
2024-03-07T13:19:00.790Z,70
2024-03-07T13:21:00.873Z,70
2024-03-07T13:23:00.728Z,67
2024-03-07T13:24:01.258Z,67
2024-03-07T13:26:00.796Z,67
2024-03-07T13:27:00.967Z,67
2024-03-07T13:28:00.871Z,67
2024-03-07T13:29:00.723Z,67
2024-03-07T13:30:01.039Z,67
2024-03-07T13:32:00.705Z,67
2024-03-07T13:33:01.359Z,67
2024-03-07T13:35:00.717Z,67
2024-03-07T13:36:00.927Z,67
2024-03-07T13:37:00.784Z,67
2024-03-07T13:40:00.850Z,67
2024-03-07T13:41:00.812Z,67
2024-03-07T13:42:00.935Z,67
2024-03-07T13:43:00.705Z,67
2024-03-07T13:44:00.831Z,67
2024-03-07T13:45:00.969Z,67
2024-03-07T13:46:00.831Z,67
2024-03-07T13:47:00.823Z,67
2024-03-07T13:48:01.440Z,67
2024-03-07T13:50:00.747Z,67
2024-03-07T13:51:01.445Z,67
2024-03-07T13:53:00.741Z,67
2024-03-07T13:54:00.961Z,67
2024-03-07T13:55:00.723Z,67
2024-03-07T13:56:03.109Z,67
2024-03-07T13:58:00.795Z,67
2024-03-07T13:59:00.739Z,67
2024-03-07T14:00:01.376Z,67
2024-03-07T14:02:00.768Z,67
2024-03-07T14:03:00.929Z,67
2024-03-07T14:05:00.773Z,67
2024-03-07T14:06:01.186Z,67
2024-03-07T14:08:00.808Z,67
2024-03-07T14:09:01.262Z,67
2024-03-07T14:10:00.741Z,67
2024-03-07T14:11:00.885Z,67
2024-03-07T14:13:00.766Z,67
2024-03-07T14:14:00.779Z,66
2024-03-07T14:15:01.090Z,66
2024-03-07T14:16:00.751Z,66
2024-03-07T14:17:00.730Z,66
2024-03-07T14:18:01.290Z,66
2024-03-07T14:20:00.738Z,66
2024-03-07T14:21:00.874Z,66
2024-03-07T14:22:00.762Z,66
2024-03-07T14:23:00.790Z,66
2024-03-07T14:24:01.108Z,66
2024-03-07T14:25:00.729Z,66
2024-03-07T14:26:05.169Z,66
2024-03-07T14:28:00.768Z,66
2024-03-07T14:29:00.835Z,66
2024-03-07T14:30:01.219Z,66
2024-03-07T14:32:00.791Z,66
2024-03-07T14:33:01.090Z,66
2024-03-07T14:34:00.767Z,66
2024-03-07T14:35:00.821Z,66
2024-03-07T14:36:00.966Z,66
2024-03-07T14:37:00.733Z,66
2024-03-07T14:38:00.754Z,66
2024-03-07T14:39:05.861Z,66
2024-03-07T14:41:00.810Z,66
2024-03-07T14:42:01.220Z,66
2024-03-07T14:43:00.729Z,66
2024-03-07T14:44:00.749Z,66
2024-03-07T14:45:07.208Z,66
2024-03-07T14:47:00.776Z,66
2024-03-07T14:48:01.033Z,66
2024-03-07T14:49:00.801Z,66
2024-03-07T14:50:00.824Z,66
2024-03-07T14:51:06.591Z,66
2024-03-07T14:53:00.831Z,66
2024-03-07T14:54:00.952Z,66
2024-03-07T14:55:00.812Z,66
2024-03-07T14:56:00.888Z,66
2024-03-07T14:57:01.102Z,66
2024-03-07T14:59:00.867Z,66
2024-03-07T15:00:01.035Z,66
2024-03-07T15:01:00.982Z,66
2024-03-07T15:02:01.048Z,66
2024-03-07T15:03:01.245Z,66
2024-03-07T15:04:00.743Z,66
2024-03-07T15:05:00.725Z,66
2024-03-07T15:06:01.207Z,66
2024-03-07T15:08:00.784Z,66
2024-03-07T15:09:00.825Z,66
2024-03-07T15:10:00.741Z,66
2024-03-07T15:11:01.030Z,66
2024-03-07T15:12:00.932Z,66
2024-03-07T15:14:00.782Z,65
2024-03-07T15:15:17.577Z,65
2024-03-07T15:17:00.728Z,65
2024-03-07T15:18:01.088Z,65
2024-03-07T15:19:00.760Z,65
2024-03-07T15:20:00.763Z,65
2024-03-07T15:21:01.092Z,65
2024-03-07T15:23:00.838Z,65
2024-03-07T15:24:01.117Z,65
2024-03-07T15:26:00.781Z,65
2024-03-07T15:27:01.178Z,65
2024-03-07T15:28:00.853Z,65
2024-03-07T15:29:00.738Z,65
2024-03-07T15:30:01.172Z,65
2024-03-07T15:32:00.761Z,65
2024-03-07T15:33:00.986Z,65
2024-03-07T15:34:00.765Z,65
2024-03-07T15:35:00.783Z,65
2024-03-07T15:36:01.098Z,65
2024-03-07T15:38:00.822Z,65
2024-03-07T15:39:00.981Z,65
2024-03-07T15:40:00.751Z,65
2024-03-07T15:41:01.069Z,65
2024-03-07T15:42:01.280Z,65
2024-03-07T15:43:00.755Z,65
2024-03-07T15:44:00.770Z,65
2024-03-07T15:45:01.188Z,65
2024-03-07T15:47:00.768Z,65
2024-03-07T15:48:01.700Z,65
2024-03-07T15:50:00.789Z,65
2024-03-07T15:51:01.397Z,65
2024-03-07T15:53:00.739Z,65
2024-03-07T15:54:00.890Z,65
2024-03-07T15:55:00.844Z,65
2024-03-07T15:56:00.745Z,65
2024-03-07T15:57:01.213Z,65
2024-03-07T15:59:00.745Z,65
2024-03-07T16:00:01.177Z,65
2024-03-07T16:02:00.801Z,65
2024-03-07T16:03:01.388Z,65
2024-03-07T16:05:00.731Z,65
2024-03-07T16:06:00.969Z,65
2024-03-07T16:07:00.780Z,65
2024-03-07T16:08:00.831Z,65
2024-03-07T16:09:01.014Z,65
2024-03-07T16:11:00.827Z,65
2024-03-07T16:12:00.857Z,65
2024-03-07T16:13:00.723Z,65
2024-03-07T16:14:00.824Z,65
2024-03-07T16:15:01.253Z,65
2024-03-07T16:17:00.843Z,65
2024-03-07T16:18:00.977Z,65
2024-03-07T16:20:00.808Z,65
2024-03-07T16:21:01.053Z,65
2024-03-07T16:22:00.764Z,65
2024-03-07T16:23:00.763Z,65
2024-03-07T16:24:00.910Z,65
2024-03-07T16:26:00.771Z,65
2024-03-07T16:27:01.076Z,65
2024-03-07T16:29:00.791Z,65
2024-03-07T16:30:01.314Z,65
2024-03-07T16:32:00.896Z,65
2024-03-07T16:33:01.728Z,65
2024-03-07T16:35:02.018Z,65
2024-03-07T16:37:00.827Z,65
2024-03-07T16:39:01.020Z,65
2024-03-07T16:40:00.817Z,65
2024-03-07T16:41:00.803Z,65
2024-03-07T16:42:01.086Z,65
2024-03-07T16:43:00.784Z,65
2024-03-07T16:44:00.802Z,65
2024-03-07T16:45:00.945Z,65
2024-03-07T16:46:00.733Z,65
2024-03-07T16:47:00.765Z,65
2024-03-07T16:48:02.397Z,65
2024-03-07T16:50:00.826Z,65
2024-03-07T16:51:01.192Z,65
2024-03-07T16:52:00.722Z,65
2024-03-07T16:53:00.770Z,65
2024-03-07T16:54:00.938Z,65